sensor_id;sensor_type;location;lat;lon;timestamp;pressure;altitude;pressure_sealevel;temperature;humidity
77205;BME280;67992;46.618;18.850;2023-03-23T00:00:06;100141.88;;;16.11;38.46
77205;BME280;67992;46.618;18.850;2023-03-23T00:02:32;100141.66;;;16.13;38.98
77205;BME280;67992;46.618;18.850;2023-03-23T00:05:03;100134.16;;;16.08;38.49
77205;BME280;67992;46.618;18.850;2023-03-23T00:07:29;100143.50;;;16.12;38.81
77205;BME280;67992;46.618;18.850;2023-03-23T00:09:58;100137.34;;;16.12;38.74
77205;BME280;67992;46.618;18.850;2023-03-23T00:12:29;100138.34;;;16.11;38.51
77205;BME280;67992;46.618;18.850;2023-03-23T00:15:06;100137.69;;;16.09;38.68
77205;BME280;67992;46.618;18.850;2023-03-23T00:17:34;100142.03;;;16.10;38.72
77205;BME280;67992;46.618;18.850;2023-03-23T00:20:03;100135.84;;;16.09;38.35
77205;BME280;67992;46.618;18.850;2023-03-23T00:22:30;100135.16;;;16.07;38.50
77205;BME280;67992;46.618;18.850;2023-03-23T00:24:56;100136.00;;;16.08;38.73
77205;BME280;67992;46.618;18.850;2023-03-23T00:27:22;100134.16;;;16.08;38.70
77205;BME280;67992;46.618;18.850;2023-03-23T00:29:49;100128.31;;;16.05;38.36
77205;BME280;67992;46.618;18.850;2023-03-23T00:32:19;100131.47;;;16.08;38.65
77205;BME280;67992;46.618;18.850;2023-03-23T00:34:46;100128.97;;;16.07;38.48
77205;BME280;67992;46.618;18.850;2023-03-23T00:37:16;100134.72;;;16.04;38.46
77205;BME280;67992;46.618;18.850;2023-03-23T00:39:45;100133.50;;;16.06;38.80
77205;BME280;67992;46.618;18.850;2023-03-23T00:42:13;100136.19;;;16.06;38.58
77205;BME280;67992;46.618;18.850;2023-03-23T00:44:43;100130.00;;;16.06;38.41
77205;BME280;67992;46.618;18.850;2023-03-23T00:47:11;100128.16;;;16.06;38.31
77205;BME280;67992;46.618;18.850;2023-03-23T00:49:40;100128.16;;;16.06;38.63
77205;BME280;67992;46.618;18.850;2023-03-23T00:52:10;100130.00;;;16.06;38.44
77205;BME280;67992;46.618;18.850;2023-03-23T00:54:37;100119.78;;;16.01;38.24
77205;BME280;67992;46.618;18.850;2023-03-23T00:57:03;100124.63;;;16.06;38.41
77205;BME280;67992;46.618;18.850;2023-03-23T00:59:31;100118.59;;;16.04;38.75
77205;BME280;67992;46.618;18.850;2023-03-23T01:02:00;100121.09;;;16.05;38.57
77205;BME280;67992;46.618;18.850;2023-03-23T01:04:26;100118.59;;;16.04;38.72
77205;BME280;67992;46.618;18.850;2023-03-23T01:06:57;100114.88;;;16.05;38.09
77205;BME280;67992;46.618;18.850;2023-03-23T01:09:26;100115.06;;;16.03;38.71
77205;BME280;67992;46.618;18.850;2023-03-23T01:11:56;100111.56;;;16.03;38.29
77205;BME280;67992;46.618;18.850;2023-03-23T01:14:21;100113.41;;;16.02;38.37
77205;BME280;67992;46.618;18.850;2023-03-23T01:16:50;100102.84;;;16.01;38.76
77205;BME280;67992;46.618;18.850;2023-03-23T01:19:19;100101.81;;;16.02;38.38
77205;BME280;67992;46.618;18.850;2023-03-23T01:21:45;100110.72;;;16.02;38.60
77205;BME280;67992;46.618;18.850;2023-03-23T01:24:14;100112.75;;;16.00;38.29
77205;BME280;67992;46.618;18.850;2023-03-23T01:26:40;100098.69;;;15.98;38.51
77205;BME280;67992;46.618;18.850;2023-03-23T01:29:08;100108.22;;;16.01;38.32
77205;BME280;67992;46.618;18.850;2023-03-23T01:31:35;100102.00;;;16.00;38.55
77205;BME280;67992;46.618;18.850;2023-03-23T01:34:06;100102.00;;;16.00;38.39
77205;BME280;67992;46.618;18.850;2023-03-23T01:36:33;100106.38;;;16.01;38.53
77205;BME280;67992;46.618;18.850;2023-03-23T01:39:00;100104.88;;;15.99;38.24
77205;BME280;67992;46.618;18.850;2023-03-23T01:41:28;100094.50;;;15.96;38.47
77205;BME280;67992;46.618;18.850;2023-03-23T01:46:52;100082.94;;;15.95;38.60
77205;BME280;67992;46.618;18.850;2023-03-23T01:49:29;100095.16;;;15.98;38.44
77205;BME280;67992;46.618;18.850;2023-03-23T01:52:00;100098.03;;;15.96;38.76
77205;BME280;67992;46.618;18.850;2023-03-23T01:54:31;100084.47;;;15.90;38.34
77205;BME280;67992;46.618;18.850;2023-03-23T01:57:05;100095.50;;;15.95;38.49
77205;BME280;67992;46.618;18.850;2023-03-23T01:59:33;100093.00;;;15.93;38.67
77205;BME280;67992;46.618;18.850;2023-03-23T02:02:03;100095.50;;;15.95;38.84
77205;BME280;67992;46.618;18.850;2023-03-23T02:04:30;100095.50;;;15.95;38.79
77205;BME280;67992;46.618;18.850;2023-03-23T02:06:59;100091.97;;;15.94;38.89
77205;BME280;67992;46.618;18.850;2023-03-23T02:09:25;100083.94;;;15.94;38.61
77205;BME280;67992;46.618;18.850;2023-03-23T02:11:57;100100.03;;;15.94;38.45
77205;BME280;67992;46.618;18.850;2023-03-23T02:14:27;100097.53;;;15.93;38.75
77205;BME280;67992;46.618;18.850;2023-03-23T02:35:16;100103.25;;;15.90;38.37
77205;BME280;67992;46.618;18.850;2023-03-23T02:37:52;100104.09;;;15.90;38.79
77205;BME280;67992;46.618;18.850;2023-03-23T02:40:28;100095.22;;;15.90;38.53
77205;BME280;67992;46.618;18.850;2023-03-23T02:43:03;100105.09;;;15.89;38.40
77205;BME280;67992;46.618;18.850;2023-03-23T02:45:34;100106.28;;;15.87;38.65
77205;BME280;67992;46.618;18.850;2023-03-23T02:48:03;100099.94;;;15.88;38.32
77205;BME280;67992;46.618;18.850;2023-03-23T02:50:31;100097.78;;;15.83;38.55
77205;BME280;67992;46.618;18.850;2023-03-23T02:53:07;100100.94;;;15.87;38.71
77205;BME280;67992;46.618;18.850;2023-03-23T02:55:41;100102.81;;;15.86;38.76
77205;BME280;67992;46.618;18.850;2023-03-23T02:58:11;100100.94;;;15.87;38.91
77205;BME280;67992;46.618;18.850;2023-03-23T03:00:39;100112.50;;;15.87;38.74
77205;BME280;67992;46.618;18.850;2023-03-23T03:03:14;100108.97;;;15.87;38.74
77205;BME280;67992;46.618;18.850;2023-03-23T03:05:57;100105.84;;;15.83;38.37
77205;BME280;67992;46.618;18.850;2023-03-23T03:08:48;100106.28;;;15.87;38.67
77205;BME280;67992;46.618;18.850;2023-03-23T03:11:20;100117.03;;;15.87;38.21
77205;BME280;67992;46.618;18.850;2023-03-23T03:14:02;100112.69;;;15.86;38.67
77205;BME280;67992;46.618;18.850;2023-03-23T03:21:46;100107.69;;;15.82;38.32
77205;BME280;67992;46.618;18.850;2023-03-23T03:24:18;100109.53;;;15.82;38.87
77205;BME280;67992;46.618;18.850;2023-03-23T03:26:50;100116.56;;;15.83;38.44
77205;BME280;67992;46.618;18.850;2023-03-23T03:29:28;100111.38;;;15.81;38.66
77205;BME280;67992;46.618;18.850;2023-03-23T03:31:56;100106.53;;;15.77;38.75
77205;BME280;67992;46.618;18.850;2023-03-23T03:34:23;100113.59;;;15.78;38.74
77205;BME280;67992;46.618;18.850;2023-03-23T03:36:54;100121.94;;;15.83;38.69
77205;BME280;67992;46.618;18.850;2023-03-23T03:39:27;100125.63;;;15.82;38.81
77205;BME280;67992;46.618;18.850;2023-03-23T03:41:54;100116.06;;;15.79;38.71
77205;BME280;67992;46.618;18.850;2023-03-23T03:44:20;100116.91;;;15.80;38.76
77205;BME280;67992;46.618;18.850;2023-03-23T03:46:46;100116.06;;;15.79;38.48
77205;BME280;67992;46.618;18.850;2023-03-23T03:49:14;100119.59;;;15.80;38.83
77205;BME280;67992;46.618;18.850;2023-03-23T03:51:43;100114.25;;;15.80;38.58
77205;BME280;67992;46.618;18.850;2023-03-23T03:54:09;100117.91;;;15.79;38.09
77205;BME280;67992;46.618;18.850;2023-03-23T03:56:40;100122.28;;;15.80;38.26
77205;BME280;67992;46.618;18.850;2023-03-23T03:59:09;100122.28;;;15.80;38.47
77205;BME280;67992;46.618;18.850;2023-03-23T04:01:38;100123.28;;;15.79;38.43
77205;BME280;67992;46.618;18.850;2023-03-23T04:04:05;100126.81;;;15.79;38.42
77205;BME280;67992;46.618;18.850;2023-03-23T04:06:34;100124.47;;;15.76;38.35
77205;BME280;67992;46.618;18.850;2023-03-23T04:09:03;100122.47;;;15.78;38.53
77205;BME280;67992;46.618;18.850;2023-03-23T04:11:32;100123.47;;;15.77;38.85
77205;BME280;67992;46.618;18.850;2023-03-23T04:13:58;100118.47;;;15.74;38.65
77205;BME280;67992;46.618;18.850;2023-03-23T04:16:30;100121.00;;;15.76;38.33
77205;BME280;67992;46.618;18.850;2023-03-23T04:18:56;100123.66;;;15.76;38.49
77205;BME280;67992;46.618;18.850;2023-03-23T04:21:26;100122.81;;;15.75;38.71
77205;BME280;67992;46.618;18.850;2023-03-23T04:23:55;100126.50;;;15.74;38.54
77205;BME280;67992;46.618;18.850;2023-03-23T04:26:27;100120.31;;;15.74;38.78
77205;BME280;67992;46.618;18.850;2023-03-23T04:28:54;100128.34;;;15.74;38.18
77205;BME280;67992;46.618;18.850;2023-03-23T04:31:21;100125.66;;;15.74;38.72
77205;BME280;67992;46.618;18.850;2023-03-23T04:33:53;100117.63;;;15.74;38.30
77205;BME280;67992;46.618;18.850;2023-03-23T04:36:19;100116.97;;;15.72;38.43
77205;BME280;67992;46.618;18.850;2023-03-23T04:38:48;100123.19;;;15.72;38.22
77205;BME280;67992;46.618;18.850;2023-03-23T04:41:16;100118.81;;;15.71;38.77
77205;BME280;67992;46.618;18.850;2023-03-23T04:43:42;100116.31;;;15.70;38.66
77205;BME280;67992;46.618;18.850;2023-03-23T04:46:08;100113.44;;;15.71;38.17
77205;BME280;67992;46.618;18.850;2023-03-23T04:48:44;100116.97;;;15.72;38.52
77205;BME280;67992;46.618;18.850;2023-03-23T04:51:11;100119.66;;;15.72;38.16
77205;BME280;67992;46.618;18.850;2023-03-23T04:53:40;100117.81;;;15.72;37.86
77205;BME280;67992;46.618;18.850;2023-03-23T04:56:11;100110.75;;;15.71;38.33
77205;BME280;67992;46.618;18.850;2023-03-23T04:58:39;100118.66;;;15.73;38.10
77205;BME280;67992;46.618;18.850;2023-03-23T05:01:06;100113.44;;;15.71;38.26
77205;BME280;67992;46.618;18.850;2023-03-23T05:03:32;100115.31;;;15.71;37.96
77205;BME280;67992;46.618;18.850;2023-03-23T05:06:02;100130.38;;;15.72;38.25
77205;BME280;67992;46.618;18.850;2023-03-23T05:08:30;100127.06;;;15.70;38.43
77205;BME280;67992;46.618;18.850;2023-03-23T05:10:58;100128.72;;;15.71;38.25
77205;BME280;67992;46.618;18.850;2023-03-23T05:13:30;100128.72;;;15.71;38.01
77205;BME280;67992;46.618;18.850;2023-03-23T05:15:56;100128.88;;;15.69;38.03
77205;BME280;67992;46.618;18.850;2023-03-23T05:18:22;100130.72;;;15.69;38.07
77205;BME280;67992;46.618;18.850;2023-03-23T05:20:54;100128.72;;;15.71;38.37
77205;BME280;67992;46.618;18.850;2023-03-23T05:23:25;100124.38;;;15.70;38.37
77205;BME280;67992;46.618;18.850;2023-03-23T05:25:55;100126.22;;;15.69;38.59
77205;BME280;67992;46.618;18.850;2023-03-23T05:28:21;100132.22;;;15.71;38.33
77205;BME280;67992;46.618;18.850;2023-03-23T05:30:48;100134.75;;;15.73;38.32
77205;BME280;67992;46.618;18.850;2023-03-23T05:33:17;100130.72;;;15.69;38.19
77205;BME280;67992;46.618;18.850;2023-03-23T05:35:47;100150.66;;;15.74;38.61
77205;BME280;67992;46.618;18.850;2023-03-23T05:38:18;100140.78;;;15.75;38.48
77205;BME280;67992;46.618;18.850;2023-03-23T05:40:44;100138.94;;;15.75;38.38
77205;BME280;67992;46.618;18.850;2023-03-23T05:43:14;100137.75;;;15.78;37.83
77205;BME280;67992;46.618;18.850;2023-03-23T05:45:42;100140.22;;;15.79;38.26
77205;BME280;67992;46.618;18.850;2023-03-23T05:48:09;100132.84;;;15.81;38.03
77205;BME280;67992;46.618;18.850;2023-03-23T05:50:38;100138.69;;;15.85;38.66
77205;BME280;67992;46.618;18.850;2023-03-23T05:53:09;100140.84;;;15.90;38.00
77205;BME280;67992;46.618;18.850;2023-03-23T05:55:35;100143.16;;;15.93;38.29
77205;BME280;67992;46.618;18.850;2023-03-23T05:58:01;100136.78;;;15.94;38.09
77205;BME280;67992;46.618;18.850;2023-03-23T06:00:27;100140.13;;;15.96;38.15
77205;BME280;67992;46.618;18.850;2023-03-23T06:02:59;100146.16;;;15.98;37.84
77205;BME280;67992;46.618;18.850;2023-03-23T06:05:29;100152.16;;;16.00;38.13
77205;BME280;67992;46.618;18.850;2023-03-23T06:07:55;100155.50;;;16.02;37.80
77205;BME280;67992;46.618;18.850;2023-03-23T06:10:21;100158.03;;;16.03;37.80
77205;BME280;67992;46.618;18.850;2023-03-23T06:12:51;100150.13;;;16.02;37.69
77205;BME280;67992;46.618;18.850;2023-03-23T06:15:17;100160.34;;;16.06;37.89
77205;BME280;67992;46.618;18.850;2023-03-23T06:17:46;100152.31;;;16.06;38.08
77205;BME280;67992;46.618;18.850;2023-03-23T06:20:12;100158.50;;;16.07;38.02
77205;BME280;67992;46.618;18.850;2023-03-23T06:22:44;100147.94;;;16.05;38.05
77205;BME280;67992;46.618;18.850;2023-03-23T06:25:10;100161.50;;;16.12;37.86
77205;BME280;67992;46.618;18.850;2023-03-23T06:27:37;100163.78;;;16.15;38.10
77205;BME280;67992;46.618;18.850;2023-03-23T06:30:04;100158.31;;;16.08;38.12
77205;BME280;67992;46.618;18.850;2023-03-23T06:32:31;100165.19;;;16.11;37.90
77205;BME280;67992;46.618;18.850;2023-03-23T06:35:00;100167.16;;;16.17;37.89
77205;BME280;67992;46.618;18.850;2023-03-23T06:37:32;100169.84;;;16.17;37.71
77205;BME280;67992;46.618;18.850;2023-03-23T06:39:58;100168.66;;;16.19;37.72
77205;BME280;67992;46.618;18.850;2023-03-23T06:42:24;100172.16;;;16.20;37.64
77205;BME280;67992;46.618;18.850;2023-03-23T06:44:56;100175.50;;;16.22;37.46
77205;BME280;67992;46.618;18.850;2023-03-23T06:47:23;100186.06;;;16.23;38.48
77205;BME280;67992;46.618;18.850;2023-03-23T06:49:48;100179.44;;;16.11;40.17
77205;BME280;67992;46.618;18.850;2023-03-23T06:52:21;100173.25;;;16.11;39.86
77205;BME280;67992;46.618;18.850;2023-03-23T06:54:51;100173.72;;;16.14;39.96
77205;BME280;67992;46.618;18.850;2023-03-23T06:57:17;100176.72;;;16.19;39.48
77205;BME280;67992;46.618;18.850;2023-03-23T06:59:46;100184.75;;;16.19;39.51
77205;BME280;67992;46.618;18.850;2023-03-23T07:02:15;100180.03;;;16.21;39.08
77205;BME280;67992;46.618;18.850;2023-03-23T07:04:41;100173.84;;;16.21;38.95
77205;BME280;67992;46.618;18.850;2023-03-23T07:07:13;100177.00;;;16.24;39.02
77205;BME280;67992;46.618;18.850;2023-03-23T07:09:44;100180.34;;;16.26;39.06
77205;BME280;67992;46.618;18.850;2023-03-23T07:12:13;100172.09;;;16.28;38.87
77205;BME280;67992;46.618;18.850;2023-03-23T07:14:39;100169.25;;;16.29;38.89
77205;BME280;67992;46.618;18.850;2023-03-23T07:17:05;100169.91;;;16.31;38.68
77205;BME280;67992;46.618;18.850;2023-03-23T07:19:31;100181.47;;;16.32;38.54
77205;BME280;67992;46.618;18.850;2023-03-23T07:21:56;100177.94;;;16.31;38.71
77205;BME280;67992;46.618;18.850;2023-03-23T07:24:25;100175.91;;;16.33;38.49
77205;BME280;67992;46.618;18.850;2023-03-23T07:26:51;100179.09;;;16.37;38.43
77205;BME280;67992;46.618;18.850;2023-03-23T07:29:17;100175.72;;;16.35;38.49
77205;BME280;67992;46.618;18.850;2023-03-23T07:31:46;100168.69;;;16.34;38.48
77205;BME280;67992;46.618;18.850;2023-03-23T07:34:15;100177.22;;;16.37;38.80
77205;BME280;67992;46.618;18.850;2023-03-23T07:36:44;100181.78;;;16.37;38.43
77205;BME280;67992;46.618;18.850;2023-03-23T07:39:14;100184.25;;;16.38;38.59
77205;BME280;67992;46.618;18.850;2023-03-23T07:41:40;100183.06;;;16.41;38.77
77205;BME280;67992;46.618;18.850;2023-03-23T07:44:06;100192.81;;;16.42;38.39
77205;BME280;67992;46.618;18.850;2023-03-23T07:46:35;100180.19;;;16.42;38.47
77205;BME280;67992;46.618;18.850;2023-03-23T07:49:07;100182.72;;;16.44;38.18
77205;BME280;67992;46.618;18.850;2023-03-23T07:51:39;100185.41;;;16.44;38.79
77205;BME280;67992;46.618;18.850;2023-03-23T07:54:11;100184.38;;;16.45;38.58
77205;BME280;67992;46.618;18.850;2023-03-23T07:56:42;100183.56;;;16.44;38.65
77205;BME280;67992;46.618;18.850;2023-03-23T07:59:08;100188.72;;;16.46;38.78
77205;BME280;67992;46.618;18.850;2023-03-23T08:01:35;100187.53;;;16.49;38.66
77205;BME280;67992;46.618;18.850;2023-03-23T08:04:00;100167.25;;;16.46;38.55
77205;BME280;67992;46.618;18.850;2023-03-23T08:06:32;100180.13;;;16.51;38.62
77205;BME280;67992;46.618;18.850;2023-03-23T08:08:59;100186.53;;;16.50;38.70
77205;BME280;67992;46.618;18.850;2023-03-23T08:11:35;100191.72;;;16.51;38.50
77205;BME280;67992;46.618;18.850;2023-03-23T08:14:01;100174.63;;;16.52;38.40
77205;BME280;67992;46.618;18.850;2023-03-23T08:16:29;100188.69;;;16.54;38.57
77205;BME280;67992;46.618;18.850;2023-03-23T08:19:00;100179.59;;;16.55;38.61
77205;BME280;67992;46.618;18.850;2023-03-23T08:21:29;100179.44;;;16.57;38.60
77205;BME280;67992;46.618;18.850;2023-03-23T08:24:03;100184.63;;;16.58;38.78
77205;BME280;67992;46.618;18.850;2023-03-23T08:26:35;100175.56;;;16.59;38.43
77205;BME280;67992;46.618;18.850;2023-03-23T08:29:03;100175.19;;;16.62;38.43
77205;BME280;67992;46.618;18.850;2023-03-23T08:31:29;100184.25;;;16.61;38.50
77205;BME280;67992;46.618;18.850;2023-03-23T08:33:54;100178.69;;;16.63;38.88
77205;BME280;67992;46.618;18.850;2023-03-23T08:36:22;100182.06;;;16.65;38.53
77205;BME280;67992;46.618;18.850;2023-03-23T08:38:50;100181.38;;;16.63;38.70
77205;BME280;67992;46.618;18.850;2023-03-23T08:41:25;100178.34;;;16.66;38.45
77205;BME280;67992;46.618;18.850;2023-03-23T08:43:54;100188.91;;;16.67;38.37
77205;BME280;67992;46.618;18.850;2023-03-23T08:46:20;100187.88;;;16.68;38.30
77205;BME280;67992;46.618;18.850;2023-03-23T08:48:46;100183.53;;;16.67;38.68
77205;BME280;67992;46.618;18.850;2023-03-23T08:51:15;100192.91;;;16.71;38.59
77205;BME280;67992;46.618;18.850;2023-03-23T08:53:40;100198.13;;;16.73;38.68
77205;BME280;67992;46.618;18.850;2023-03-23T08:56:10;100191.25;;;16.70;38.53
77205;BME280;67992;46.618;18.850;2023-03-23T08:58:43;100198.56;;;16.76;38.60
77205;BME280;67992;46.618;18.850;2023-03-23T09:01:14;100202.09;;;16.77;38.72
77205;BME280;67992;46.618;18.850;2023-03-23T09:03:42;100196.91;;;16.75;38.53
77205;BME280;67992;46.618;18.850;2023-03-23T09:06:12;100199.22;;;16.78;38.87
77205;BME280;67992;46.618;18.850;2023-03-23T09:08:40;100200.25;;;16.77;38.94
77205;BME280;67992;46.618;18.850;2023-03-23T09:11:08;100193.66;;;16.80;38.50
77205;BME280;67992;46.618;18.850;2023-03-23T09:13:35;100197.84;;;16.82;38.60
77205;BME280;67992;46.618;18.850;2023-03-23T09:16:05;100182.28;;;16.78;38.44
77205;BME280;67992;46.618;18.850;2023-03-23T09:18:31;100189.94;;;16.81;38.46
77205;BME280;67992;46.618;18.850;2023-03-23T09:21:03;100183.94;;;16.79;38.31
77205;BME280;67992;46.618;18.850;2023-03-23T09:23:33;100193.31;;;16.83;38.54
77205;BME280;67992;46.618;18.850;2023-03-23T09:26:01;100185.41;;;16.81;38.54
77205;BME280;67992;46.618;18.850;2023-03-23T09:28:30;100185.78;;;16.78;38.61
77205;BME280;67992;46.618;18.850;2023-03-23T09:30:59;100191.81;;;16.80;38.60
77205;BME280;67992;46.618;18.850;2023-03-23T09:33:28;100184.13;;;16.77;38.70
77205;BME280;67992;46.618;18.850;2023-03-23T09:35:58;100175.88;;;16.79;38.51
77205;BME280;67992;46.618;18.850;2023-03-23T09:38:24;100196.34;;;16.80;38.62
77205;BME280;67992;46.618;18.850;2023-03-23T09:46:12;100182.06;;;16.79;38.82
77205;BME280;67992;46.618;18.850;2023-03-23T09:49:05;100172.16;;;16.80;38.53
77205;BME280;67992;46.618;18.850;2023-03-23T09:51:56;100170.47;;;16.79;38.41
77205;BME280;67992;46.618;18.850;2023-03-23T09:54:35;100164.47;;;16.77;38.80
77205;BME280;67992;46.618;18.850;2023-03-23T09:57:16;100172.34;;;16.78;38.65
77205;BME280;67992;46.618;18.850;2023-03-23T10:00:01;100167.34;;;16.75;38.70
77205;BME280;67992;46.618;18.850;2023-03-23T10:05:30;100158.44;;;16.75;38.66
77205;BME280;67992;46.618;18.850;2023-03-23T10:08:02;100152.44;;;16.73;38.62
77205;BME280;67992;46.618;18.850;2023-03-23T10:10:43;100157.59;;;16.74;38.71
77205;BME280;67992;46.618;18.850;2023-03-23T10:16:22;100148.53;;;16.75;38.82
77205;BME280;67992;46.618;18.850;2023-03-23T10:19:15;100143.16;;;16.75;38.83
77205;BME280;67992;46.618;18.850;2023-03-23T10:21:52;100146.84;;;16.74;38.57
77205;BME280;67992;46.618;18.850;2023-03-23T10:24:33;100126.75;;;16.70;38.56
77205;BME280;67992;46.618;18.850;2023-03-23T10:27:23;100128.88;;;16.75;38.90
77205;BME280;67992;46.618;18.850;2023-03-23T10:30:11;100121.84;;;16.74;38.73
77205;BME280;67992;46.618;18.850;2023-03-23T10:32:43;100123.69;;;16.73;38.63
77205;BME280;67992;46.618;18.850;2023-03-23T10:35:35;100128.03;;;16.74;38.81
77205;BME280;67992;46.618;18.850;2023-03-23T10:38:10;100126.56;;;16.72;38.78
77205;BME280;67992;46.618;18.850;2023-03-23T10:40:48;100121.84;;;16.74;38.71
77205;BME280;67992;46.618;18.850;2023-03-23T10:43:17;100119.34;;;16.72;38.70
77205;BME280;67992;46.618;18.850;2023-03-23T10:46:01;100106.47;;;16.68;38.81
77205;BME280;67992;46.618;18.850;2023-03-23T10:48:31;100122.03;;;16.72;38.86
77205;BME280;67992;46.618;18.850;2023-03-23T10:51:02;100114.97;;;16.71;38.94
77205;BME280;67992;46.618;18.850;2023-03-23T10:54:04;100113.97;;;16.72;38.68
77205;BME280;67992;46.618;18.850;2023-03-23T10:56:44;100111.28;;;16.72;38.90
77205;BME280;67992;46.618;18.850;2023-03-23T10:59:30;100107.66;;;16.65;39.11
77205;BME280;67992;46.618;18.850;2023-03-23T11:02:02;100104.41;;;16.70;38.86
77205;BME280;67992;46.618;18.850;2023-03-23T11:04:31;100102.56;;;16.70;38.86
77205;BME280;67992;46.618;18.850;2023-03-23T11:07:01;100099.88;;;16.70;39.05
77205;BME280;67992;46.618;18.850;2023-03-23T11:09:39;100094.50;;;16.70;39.27
77205;BME280;67992;46.618;18.850;2023-03-23T11:12:19;100088.66;;;16.67;38.99
77205;BME280;67992;46.618;18.850;2023-03-23T11:14:48;100091.81;;;16.70;39.01
77205;BME280;67992;46.618;18.850;2023-03-23T11:17:27;100086.63;;;16.69;38.75
77205;BME280;67992;46.618;18.850;2023-03-23T11:19:56;100091.16;;;16.68;38.69
77205;BME280;67992;46.618;18.850;2023-03-23T11:22:31;100093.03;;;16.68;38.99
77205;BME280;67992;46.618;18.850;2023-03-23T11:25:04;100082.66;;;16.65;38.90
77205;BME280;67992;46.618;18.850;2023-03-23T11:27:30;100074.22;;;16.68;38.91
77205;BME280;67992;46.618;18.850;2023-03-23T11:32:44;100081.44;;;16.67;39.02
77205;BME280;67992;46.618;18.850;2023-03-23T11:35:23;100082.44;;;16.66;39.12
77205;BME280;67992;46.618;18.850;2023-03-23T11:37:56;100077.06;;;16.66;38.66
77205;BME280;67992;46.618;18.850;2023-03-23T11:40:49;100075.44;;;16.65;38.90
77205;BME280;67992;46.618;18.850;2023-03-23T11:43:24;100059.31;;;16.65;39.06
77205;BME280;67992;46.618;18.850;2023-03-23T11:49:28;100051.41;;;16.64;39.14
77205;BME280;67992;46.618;18.850;2023-03-23T11:52:21;100060.31;;;16.64;39.45
77205;BME280;67992;46.618;18.850;2023-03-23T11:54:50;100046.03;;;16.64;39.13
77205;BME280;67992;46.618;18.850;2023-03-23T11:57:26;100041.66;;;16.63;39.24
77205;BME280;67992;46.618;18.850;2023-03-23T11:59:56;100043.34;;;16.64;39.24
77205;BME280;67992;46.618;18.850;2023-03-23T12:11:11;100041.66;;;16.63;39.28
77205;BME280;67992;46.618;18.850;2023-03-23T12:14:02;100042.72;;;16.62;39.34
77205;BME280;67992;46.618;18.850;2023-03-23T12:30:52;100029.63;;;16.59;39.24
77205;BME280;67992;46.618;18.850;2023-03-23T12:33:54;100030.47;;;16.59;39.34
77205;BME280;67992;46.618;18.850;2023-03-23T12:42:28;100020.09;;;16.56;39.41
77205;BME280;67992;46.618;18.850;2023-03-23T12:45:19;100022.41;;;16.59;39.59
77205;BME280;67992;46.618;18.850;2023-03-23T12:47:59;100019.25;;;16.56;39.58
77205;BME280;67992;46.618;18.850;2023-03-23T12:50:37;100018.88;;;16.59;39.66
77205;BME280;67992;46.618;18.850;2023-03-23T12:53:19;100016.22;;;16.59;39.28
77205;BME280;67992;46.618;18.850;2023-03-23T12:55:50;100019.72;;;16.59;39.40
77205;BME280;67992;46.618;18.850;2023-03-23T12:58:26;100010.63;;;16.60;39.33
77205;BME280;67992;46.618;18.850;2023-03-23T13:01:12;100003.34;;;16.54;39.48
77205;BME280;67992;46.618;18.850;2023-03-23T13:03:54;100011.66;;;16.59;39.34
77205;BME280;67992;46.618;18.850;2023-03-23T13:08:58;100011.47;;;16.61;39.24
77205;BME280;67992;46.618;18.850;2023-03-23T13:11:37;100006.94;;;16.61;39.46
77205;BME280;67992;46.618;18.850;2023-03-23T13:14:26;100005.94;;;16.62;39.38
77205;BME280;67992;46.618;18.850;2023-03-23T13:23:20;99983.59;;;16.62;39.45
77205;BME280;67992;46.618;18.850;2023-03-23T13:26:11;99980.91;;;16.62;39.63
77205;BME280;67992;46.618;18.850;2023-03-23T13:28:57;99990.63;;;16.63;39.41
77205;BME280;67992;46.618;18.850;2023-03-23T13:31:36;99985.25;;;16.63;39.53
77205;BME280;67992;46.618;18.850;2023-03-23T13:34:28;99978.22;;;16.62;39.62
77205;BME280;67992;46.618;18.850;2023-03-23T13:39:36;99972.22;;;16.60;39.59
77205;BME280;67992;46.618;18.850;2023-03-23T13:48:01;99970.34;;;16.60;39.45
77205;BME280;67992;46.618;18.850;2023-03-23T13:50:43;99971.19;;;16.61;39.12
77205;BME280;67992;46.618;18.850;2023-03-23T13:53:30;99980.72;;;16.63;39.44
77205;BME280;67992;46.618;18.850;2023-03-23T13:56:20;99966.44;;;16.63;39.59
77205;BME280;67992;46.618;18.850;2023-03-23T13:58:51;99969.97;;;16.63;39.53
77205;BME280;67992;46.618;18.850;2023-03-23T14:01:37;99970.81;;;16.64;39.64
77205;BME280;67992;46.618;18.850;2023-03-23T14:04:13;99953.56;;;16.58;39.39
77205;BME280;67992;46.618;18.850;2023-03-23T14:06:44;99967.28;;;16.63;39.80
77205;BME280;67992;46.618;18.850;2023-03-23T14:09:21;99962.94;;;16.62;39.43
77205;BME280;67992;46.618;18.850;2023-03-23T14:12:03;99967.47;;;16.62;39.57
77205;BME280;67992;46.618;18.850;2023-03-23T14:14:49;99968.31;;;16.62;39.18
77205;BME280;67992;46.618;18.850;2023-03-23T14:17:17;99960.25;;;16.62;39.58
77205;BME280;67992;46.618;18.850;2023-03-23T14:19:51;99959.41;;;16.62;39.80
77205;BME280;67992;46.618;18.850;2023-03-23T14:22:32;99953.41;;;16.60;39.56
77205;BME280;67992;46.618;18.850;2023-03-23T14:25:19;99951.34;;;16.62;39.57
77205;BME280;67992;46.618;18.850;2023-03-23T14:27:46;99951.16;;;16.63;39.84
77205;BME280;67992;46.618;18.850;2023-03-23T14:30:21;99953.00;;;16.63;39.65
77205;BME280;67992;46.618;18.850;2023-03-23T14:32:47;99945.16;;;16.61;39.68